Tikanlik, China
Current Conditions -  °F | °C
As of 8:30 PM on Thursday 30 Oct 2014 (Local Time) from ZWWW Reporting Station
Clear Clear  
Wind Chill: 34°   Ceiling: Unl
Heat Index: 37°   Visibility: 5mi
Dew Point: 23°   Wind: 4mph
Humidity: 56%   Direction: 290°WNW
Pressure: 30.45"   Gusts: NA
Location:  40.63°N, 87.7°E
Report Text: ZWWW 301230Z 29002MPS 8000 NSC 03/M05 Q1031 NOSIG
Loading
Personal Weather Stations






























Interactive Weather Map
Tropical Storm Tracking
New forecast layout! Learn more

10-Day Weather Forecast

Advertisements
Track Severe Weather on mobile